createdAt,value
2019-03-10T00:00:29.561Z,97.45
2019-03-10T00:01:29.575Z,97.45
2019-03-10T00:02:29.590Z,97.64
2019-03-10T00:03:29.609Z,97.55
2019-03-10T00:04:29.624Z,97.45
2019-03-10T00:05:29.709Z,97.36
2019-03-10T00:06:29.655Z,97.83
2019-03-10T00:07:29.671Z,97.50
2019-03-10T00:08:29.686Z,97.74
2019-03-10T00:09:29.705Z,97.83
2019-03-10T00:10:29.720Z,97.55
2019-03-10T00:11:29.737Z,97.83
2019-03-10T00:12:29.801Z,97.45
2019-03-10T00:13:29.767Z,97.45
2019-03-10T00:14:29.784Z,97.83
2019-03-10T00:15:29.798Z,97.45
2019-03-10T00:16:29.816Z,97.36
2019-03-10T00:17:29.838Z,96.98
2019-03-10T00:18:29.847Z,97.08
2019-03-10T00:19:29.864Z,97.22
2019-03-10T00:20:29.881Z,97.74
2019-03-10T00:21:29.905Z,97.36
2019-03-10T00:22:29.911Z,97.45
2019-03-10T00:23:29.938Z,97.41
2019-03-10T00:24:29.950Z,97.74
2019-03-10T00:25:29.970Z,97.55
2019-03-10T00:26:29.976Z,97.45
2019-03-10T00:27:29.999Z,97.41
2019-03-10T00:28:30.012Z,97.41
2019-03-10T00:29:30.027Z,97.97
2019-03-10T00:30:30.042Z,97.50
2019-03-10T00:31:30.060Z,97.41
2019-03-10T00:32:30.080Z,97.88
2019-03-10T00:33:30.093Z,97.88
2019-03-10T00:34:30.107Z,97.41
2019-03-10T00:35:30.123Z,97.50
2019-03-10T00:36:30.139Z,97.41
2019-03-10T00:37:30.155Z,97.60
2019-03-10T00:38:30.173Z,97.60
2019-03-10T00:39:30.189Z,97.41
2019-03-10T00:40:30.203Z,97.60
2019-03-10T00:41:30.222Z,97.41
2019-03-10T00:42:30.234Z,97.31
2019-03-10T00:43:30.254Z,97.50
2019-03-10T00:44:30.270Z,97.41
2019-03-10T00:45:30.287Z,97.69
2019-03-10T00:46:30.304Z,97.41
2019-03-10T00:47:30.324Z,97.41
2019-03-10T00:48:30.340Z,97.50
2019-03-10T00:49:30.404Z,97.60
2019-03-10T00:50:30.363Z,97.41
2019-03-10T00:51:30.384Z,97.41
2019-03-10T00:52:30.399Z,97.97
2019-03-10T00:53:30.414Z,98.07
2019-03-10T00:54:30.429Z,97.41
2019-03-10T00:55:30.444Z,97.69
2019-03-10T00:56:30.460Z,97.41
2019-03-10T00:57:30.484Z,97.69
2019-03-10T00:58:30.495Z,97.31
2019-03-10T00:59:30.527Z,97.78
2019-03-10T01:00:30.574Z,97.50
2019-03-10T01:01:30.546Z,97.41
2019-03-10T01:02:30.567Z,97.69
2019-03-10T01:03:30.575Z,97.97
2019-03-10T01:04:30.590Z,97.41
2019-03-10T01:05:30.608Z,97.31
2019-03-10T01:06:30.619Z,97.31
2019-03-10T01:07:30.639Z,97.69
2019-03-10T01:08:30.652Z,97.50
2019-03-10T01:09:30.668Z,97.50
2019-03-10T01:10:30.684Z,97.50
2019-03-10T01:11:30.702Z,97.50
2019-03-10T01:12:30.716Z,97.31
2019-03-10T01:13:30.737Z,97.97
2019-03-10T01:14:30.757Z,97.69
2019-03-10T01:15:30.767Z,97.50
2019-03-10T01:16:30.782Z,97.97
2019-03-10T01:17:30.797Z,97.78
2019-03-10T01:18:30.814Z,97.41
2019-03-10T01:19:30.832Z,98.07
2019-03-10T01:20:30.845Z,97.50
2019-03-10T01:21:30.859Z,97.41
2019-03-10T01:22:30.879Z,97.88
2019-03-10T01:23:30.897Z,97.69
2019-03-10T01:24:30.914Z,97.60
2019-03-10T01:25:30.927Z,97.50
2019-03-10T01:26:30.943Z,97.50
2019-03-10T01:27:30.961Z,97.41
2019-03-10T01:28:30.982Z,97.69
2019-03-10T01:29:30.988Z,97.41
2019-03-10T01:30:31.018Z,97.41
2019-03-10T01:31:31.020Z,97.41
2019-03-10T01:32:31.035Z,97.60
2019-03-10T01:33:31.052Z,97.88
2019-03-10T01:34:31.070Z,97.41
2019-03-10T01:35:31.086Z,97.50
2019-03-10T01:36:31.109Z,97.12
2019-03-10T01:37:31.118Z,97.31
2019-03-10T01:38:31.138Z,97.22
2019-03-10T01:39:31.153Z,97.41
2019-03-10T01:40:31.164Z,97.69
2019-03-10T01:41:31.182Z,97.69
2019-03-10T01:42:31.199Z,97.22
2019-03-10T01:43:31.214Z,97.03
2019-03-10T01:44:31.228Z,97.88
2019-03-10T01:45:31.250Z,97.60
2019-03-10T01:46:31.262Z,97.31
2019-03-10T01:47:31.276Z,97.50
2019-03-10T01:48:31.292Z,97.69
2019-03-10T01:49:31.310Z,97.12
2019-03-10T01:50:31.328Z,97.03
2019-03-10T01:51:31.349Z,97.03
2019-03-10T01:52:31.358Z,96.65
2019-03-10T01:53:31.379Z,96.74
2019-03-10T01:54:31.406Z,97.12
2019-03-10T01:55:31.413Z,97.12
2019-03-10T01:56:31.430Z,96.17
2019-03-10T01:57:31.436Z,96.45
2019-03-10T01:58:31.459Z,96.45
2019-03-10T01:59:31.470Z,96.45
2019-03-10T02:00:31.484Z,96.55
2019-03-10T02:01:31.500Z,96.36
2019-03-10T02:02:31.523Z,96.45
2019-03-10T02:03:31.531Z,96.45
2019-03-10T02:04:31.550Z,96.65
2019-03-10T02:05:31.612Z,96.74
2019-03-10T02:06:31.578Z,96.55
2019-03-10T02:07:31.602Z,96.45
2019-03-10T02:08:31.619Z,96.93
2019-03-10T02:09:31.630Z,96.65
2019-03-10T02:10:31.645Z,96.55
2019-03-10T02:11:31.662Z,96.84
2019-03-10T02:12:31.684Z,96.36
2019-03-10T02:13:31.698Z,96.55
2019-03-10T02:14:31.707Z,96.26
2019-03-10T02:15:31.725Z,96.65
2019-03-10T02:16:31.740Z,96.65
2019-03-10T02:17:31.756Z,96.45
2019-03-10T02:18:31.771Z,95.89
2019-03-10T02:19:31.791Z,95.79
2019-03-10T02:20:31.808Z,96.36
2019-03-10T02:21:31.820Z,96.26
2019-03-10T02:22:31.838Z,96.26
2019-03-10T02:23:31.852Z,95.89
2019-03-10T02:24:31.868Z,96.45
2019-03-10T02:25:31.890Z,96.65
2019-03-10T02:26:31.900Z,96.45
2019-03-10T02:27:31.918Z,96.17
2019-03-10T02:28:31.934Z,96.26
2019-03-10T02:29:31.951Z,96.45
2019-03-10T02:30:31.964Z,96.17
2019-03-10T02:31:31.983Z,96.36
2019-03-10T02:32:31.998Z,96.45
2019-03-10T02:33:32.014Z,95.79
2019-03-10T02:34:32.036Z,96.74
2019-03-10T02:35:32.043Z,95.89
2019-03-10T02:36:32.064Z,95.89
2019-03-10T02:37:32.080Z,96.65
2019-03-10T02:38:32.110Z,96.65
2019-03-10T02:39:32.112Z,96.84
2019-03-10T02:40:32.131Z,96.65
2019-03-10T02:41:32.144Z,95.79
2019-03-10T02:42:32.157Z,95.79
2019-03-10T02:43:32.215Z,96.45
2019-03-10T02:44:32.194Z,95.89
2019-03-10T02:45:32.212Z,95.79
2019-03-10T02:46:32.225Z,95.89
2019-03-10T02:47:32.240Z,95.79
2019-03-10T02:48:32.297Z,95.70
2019-03-10T02:49:32.271Z,95.70
2019-03-10T02:50:32.288Z,95.70
2019-03-10T02:51:32.305Z,95.98
2019-03-10T02:52:32.331Z,96.45
2019-03-10T02:53:32.338Z,95.89
2019-03-10T02:54:32.351Z,95.89
2019-03-10T02:55:32.369Z,95.60
2019-03-10T02:56:32.404Z,95.75
2019-03-10T02:57:32.402Z,95.79
2019-03-10T02:58:32.415Z,96.17
2019-03-10T02:59:32.439Z,95.89
2019-03-10T03:00:32.452Z,96.36
2019-03-10T03:01:32.466Z,95.79
2019-03-10T03:02:32.482Z,95.60
2019-03-10T03:03:32.498Z,96.45
2019-03-10T03:04:32.514Z,96.26
2019-03-10T03:05:32.532Z,95.89
2019-03-10T03:06:32.550Z,96.65
2019-03-10T03:07:32.571Z,95.89
2019-03-10T03:08:32.577Z,96.65
2019-03-10T03:09:32.593Z,96.36
2019-03-10T03:10:32.618Z,96.36
2019-03-10T03:11:32.628Z,96.84
2019-03-10T03:12:32.647Z,96.74
2019-03-10T03:13:32.660Z,96.45
2019-03-10T03:14:32.682Z,96.65
2019-03-10T03:15:32.689Z,96.69
2019-03-10T03:16:32.718Z,96.45
2019-03-10T03:17:32.722Z,96.84
2019-03-10T03:18:32.739Z,97.31
2019-03-10T03:19:32.754Z,97.41
2019-03-10T03:20:32.778Z,97.22
2019-03-10T03:21:42.895Z,97.41
2019-03-10T03:22:32.805Z,97.78
2019-03-10T03:23:32.824Z,97.69
2019-03-10T03:24:32.837Z,97.69
2019-03-10T03:25:32.861Z,98.17
2019-03-10T03:26:32.883Z,97.69
2019-03-10T03:27:32.887Z,97.78
2019-03-10T03:28:32.909Z,97.50
2019-03-10T03:29:32.921Z,98.55
2019-03-10T03:30:32.935Z,98.36
2019-03-10T03:31:32.975Z,98.17
2019-03-10T03:32:32.969Z,98.36
2019-03-10T03:33:32.999Z,98.26
2019-03-10T03:34:32.999Z,98.64
2019-03-10T03:35:33.019Z,98.36
2019-03-10T03:36:33.033Z,98.83
2019-03-10T03:37:33.047Z,98.64
2019-03-10T03:38:33.062Z,98.64
2019-03-10T03:39:33.081Z,98.45
2019-03-10T03:40:33.127Z,98.93
2019-03-10T03:41:33.113Z,98.45
2019-03-10T03:42:33.128Z,99.30
2019-03-10T03:43:33.145Z,98.64
2019-03-10T03:44:33.160Z,98.36
2019-03-10T03:45:33.179Z,98.83
2019-03-10T03:46:33.197Z,98.93
2019-03-10T03:47:33.408Z,99.50
2019-03-10T03:48:33.278Z,98.93
2019-03-10T03:49:33.240Z,98.64
2019-03-10T03:50:33.255Z,99.02
2019-03-10T03:51:33.275Z,99.30
2019-03-10T03:52:33.293Z,99.40
2019-03-10T03:53:33.318Z,99.11
2019-03-10T03:54:33.320Z,99.11
2019-03-10T03:55:33.349Z,99.69
2019-03-10T03:56:33.362Z,99.59
2019-03-10T03:57:33.372Z,99.78
2019-03-10T03:58:33.387Z,99.88
2019-03-10T03:59:33.401Z,99.99
2019-03-10T04:00:33.429Z,99.99
2019-03-10T04:01:33.433Z,99.99
2019-03-10T04:02:33.451Z,99.99
2019-03-10T04:03:33.472Z,99.99
2019-03-10T04:04:33.481Z,99.99
2019-03-10T04:05:33.499Z,99.99
2019-03-10T04:06:33.513Z,99.69
2019-03-10T04:07:33.535Z,99.97
2019-03-10T04:08:33.752Z,99.99
2019-03-10T04:09:33.565Z,99.78
2019-03-10T04:10:33.586Z,99.97
2019-03-10T04:11:33.905Z,99.59
2019-03-10T04:12:33.619Z,99.21
2019-03-10T04:13:33.625Z,99.69
2019-03-10T04:14:33.946Z,99.78
2019-03-10T04:15:33.657Z,99.59
2019-03-10T04:16:33.676Z,99.78
2019-03-10T04:17:33.893Z,99.99
2019-03-10T04:18:33.710Z,99.88
2019-03-10T04:19:33.727Z,99.50
2019-03-10T04:20:33.742Z,99.78
2019-03-10T04:21:33.762Z,99.99
2019-03-10T04:22:33.777Z,99.99
2019-03-10T04:23:33.788Z,99.97
2019-03-10T04:24:33.803Z,99.99
2019-03-10T04:25:33.822Z,99.99
2019-03-10T04:26:33.835Z,99.99
2019-03-10T04:27:33.853Z,99.99
2019-03-10T04:28:33.868Z,99.99
2019-03-10T04:29:33.886Z,99.99
2019-03-10T04:30:33.913Z,99.99
2019-03-10T04:31:33.914Z,99.99
2019-03-10T04:32:33.932Z,99.99
2019-03-10T04:33:33.946Z,99.99
2019-03-10T04:34:33.967Z,99.99
2019-03-10T04:35:33.978Z,99.99
2019-03-10T04:36:33.998Z,99.99
2019-03-10T04:37:34.011Z,99.99
2019-03-10T04:38:34.034Z,99.99
2019-03-10T04:39:34.042Z,99.99
2019-03-10T04:40:34.059Z,99.99
2019-03-10T04:41:34.083Z,99.99
2019-03-10T04:42:34.089Z,99.99
2019-03-10T04:43:34.120Z,99.99
2019-03-10T04:44:36.150Z,99.99
2019-03-10T04:45:34.138Z,99.99
2019-03-10T04:46:34.156Z,99.99
2019-03-10T04:47:34.186Z,99.99
2019-03-10T04:48:34.193Z,99.99
2019-03-10T04:49:34.203Z,99.99
2019-03-10T04:50:34.219Z,99.99
2019-03-10T04:51:34.237Z,99.99
2019-03-10T04:52:34.252Z,99.99
2019-03-10T04:53:34.266Z,99.99
2019-03-10T04:54:34.532Z,99.99
2019-03-10T04:55:34.346Z,99.99
2019-03-10T04:56:34.314Z,99.99
2019-03-10T04:57:34.330Z,99.99
2019-03-10T04:58:34.347Z,99.99
2019-03-10T04:59:34.370Z,99.99
2019-03-10T05:00:34.378Z,99.99
2019-03-10T05:01:34.402Z,99.99
2019-03-10T05:02:34.412Z,99.99
2019-03-10T05:03:34.428Z,99.99
2019-03-10T05:04:34.444Z,99.99
2019-03-10T05:05:34.457Z,99.99
2019-03-10T05:06:34.475Z,99.99
2019-03-10T05:07:34.490Z,99.99
2019-03-10T05:08:34.522Z,99.99
2019-03-10T05:09:34.521Z,99.99
2019-03-10T05:10:34.537Z,99.99
2019-03-10T05:11:34.555Z,99.99
2019-03-10T05:12:34.570Z,99.99
2019-03-10T05:13:34.585Z,99.99
2019-03-10T05:14:34.603Z,99.99
2019-03-10T05:15:34.617Z,99.99
2019-03-10T05:16:34.635Z,99.99
2019-03-10T05:17:34.650Z,99.99
2019-03-10T05:18:34.666Z,99.99
2019-03-10T05:19:34.682Z,99.99
2019-03-10T05:20:34.702Z,99.99
2019-03-10T05:21:34.715Z,99.99
2019-03-10T05:22:34.728Z,99.99
2019-03-10T05:23:34.745Z,99.99
2019-03-10T05:24:34.769Z,99.99
2019-03-10T05:25:34.780Z,99.99
2019-03-10T05:26:34.790Z,99.99
2019-03-10T05:27:34.809Z,99.99
2019-03-10T05:28:34.826Z,99.99
2019-03-10T05:29:34.839Z,99.99
2019-03-10T05:30:34.855Z,99.99
2019-03-10T05:31:34.871Z,99.99
2019-03-10T05:32:34.887Z,99.99
2019-03-10T05:33:34.913Z,99.99
2019-03-10T05:34:34.918Z,99.99
2019-03-10T05:35:34.932Z,99.99
2019-03-10T05:36:34.952Z,99.99
2019-03-10T05:37:34.967Z,99.99
2019-03-10T05:38:34.985Z,99.99
2019-03-10T05:39:35.000Z,99.99
2019-03-10T05:40:35.012Z,99.99
2019-03-10T05:41:35.028Z,99.99
2019-03-10T05:42:35.052Z,99.99
2019-03-10T05:43:35.065Z,99.99
2019-03-10T05:44:35.075Z,99.99
2019-03-10T05:45:35.103Z,99.99
2019-03-10T05:46:35.109Z,99.99
2019-03-10T05:47:35.125Z,99.99
2019-03-10T05:48:35.140Z,99.99
2019-03-10T05:49:35.162Z,99.99
2019-03-10T05:50:35.173Z,99.99
2019-03-10T05:51:35.185Z,99.99
2019-03-10T05:52:35.202Z,99.99
2019-03-10T05:53:35.227Z,99.99
2019-03-10T05:54:35.235Z,99.99
2019-03-10T05:55:35.249Z,99.99
2019-03-10T05:56:35.267Z,99.99
2019-03-10T05:57:35.282Z,99.99
2019-03-10T05:58:35.554Z,99.99
2019-03-10T05:59:35.318Z,99.99
2019-03-10T06:00:42.649Z,99.99
2019-03-10T06:01:35.342Z,99.99
2019-03-10T06:02:35.357Z,99.99
2019-03-10T06:03:35.381Z,99.99
2019-03-10T06:04:35.389Z,99.99
2019-03-10T06:05:35.415Z,99.99
2019-03-10T06:06:35.425Z,99.99
2019-03-10T06:07:35.438Z,99.99
2019-03-10T06:08:35.461Z,99.99
2019-03-10T06:09:35.467Z,99.99
2019-03-10T06:10:35.489Z,99.99
2019-03-10T06:11:35.501Z,99.99
2019-03-10T06:12:35.515Z,99.99
2019-03-10T06:13:35.536Z,99.99
2019-03-10T06:14:35.547Z,99.99
2019-03-10T06:15:35.564Z,99.99
2019-03-10T06:16:35.576Z,99.99
2019-03-10T06:17:35.598Z,99.99
2019-03-10T06:18:35.611Z,99.99
2019-03-10T06:19:35.627Z,99.99
2019-03-10T06:20:35.643Z,99.99
2019-03-10T06:21:35.658Z,99.99
2019-03-10T06:22:35.673Z,99.99
2019-03-10T06:23:35.689Z,99.99
2019-03-10T06:24:35.702Z,99.99
2019-03-10T06:25:35.720Z,99.99
2019-03-10T06:26:35.734Z,99.99
2019-03-10T06:27:35.752Z,99.99
2019-03-10T06:28:35.767Z,99.99
2019-03-10T06:29:35.787Z,99.99
2019-03-10T06:30:35.797Z,99.99
2019-03-10T06:31:35.814Z,99.99
2019-03-10T06:32:35.830Z,99.99
2019-03-10T06:33:35.850Z,99.99
2019-03-10T06:34:35.858Z,99.99
2019-03-10T06:35:35.874Z,99.99
2019-03-10T06:36:35.899Z,99.99
2019-03-10T06:37:35.906Z,99.99
2019-03-10T06:38:35.920Z,99.99
2019-03-10T06:39:35.937Z,99.99
2019-03-10T06:40:35.955Z,99.99
2019-03-10T06:41:35.969Z,99.99
2019-03-10T06:42:35.985Z,99.99
2019-03-10T06:43:36.007Z,99.99
2019-03-10T06:44:36.014Z,99.99
2019-03-10T06:45:36.031Z,99.99
2019-03-10T06:46:36.045Z,99.99
2019-03-10T06:47:36.076Z,99.99
2019-03-10T06:48:36.079Z,99.99
2019-03-10T06:49:36.095Z,99.99
2019-03-10T06:50:36.111Z,99.99
2019-03-10T06:51:36.132Z,99.99
2019-03-10T06:52:36.141Z,99.99
2019-03-10T06:53:36.156Z,99.99
2019-03-10T06:54:36.169Z,99.99
2019-03-10T06:55:36.187Z,99.99
2019-03-10T06:56:36.203Z,99.99
2019-03-10T06:57:36.218Z,99.99
2019-03-10T06:58:36.238Z,99.99
2019-03-10T06:59:36.251Z,99.99
2019-03-10T07:00:36.262Z,99.99
2019-03-10T07:01:36.276Z,99.99
2019-03-10T07:02:36.294Z,99.99
2019-03-10T07:03:36.316Z,99.99
2019-03-10T07:04:36.323Z,99.99
2019-03-10T07:05:36.353Z,99.99
2019-03-10T07:06:36.360Z,99.99
2019-03-10T07:07:36.375Z,99.99
2019-03-10T07:08:36.384Z,99.99
2019-03-10T07:09:36.402Z,99.99
2019-03-10T07:10:36.418Z,99.99
2019-03-10T07:11:36.432Z,99.99
2019-03-10T07:12:36.448Z,99.99
2019-03-10T07:13:36.463Z,99.99
2019-03-10T07:14:36.475Z,99.99
2019-03-10T07:15:36.499Z,99.99
2019-03-10T07:16:36.506Z,99.99
2019-03-10T07:17:36.527Z,99.99
2019-03-10T07:18:36.540Z,99.99
2019-03-10T07:19:36.556Z,99.99
2019-03-10T07:20:36.578Z,99.99
2019-03-10T07:21:36.594Z,99.99
2019-03-10T07:22:36.602Z,99.99
2019-03-10T07:23:36.617Z,99.99
2019-03-10T07:24:36.631Z,99.99
2019-03-10T07:25:36.648Z,99.99
2019-03-10T07:26:36.662Z,99.99
2019-03-10T07:27:36.679Z,99.99
2019-03-10T07:28:36.693Z,99.99
2019-03-10T07:29:36.707Z,99.99
2019-03-10T07:30:36.723Z,99.99
2019-03-10T07:31:36.740Z,99.99
2019-03-10T07:32:36.757Z,99.99
2019-03-10T07:33:36.771Z,99.99
2019-03-10T07:34:36.788Z,99.99
2019-03-10T07:35:37.111Z,99.99
2019-03-10T07:36:36.817Z,99.99
2019-03-10T07:37:36.834Z,99.99
2019-03-10T07:38:36.847Z,99.99
2019-03-10T07:39:36.871Z,99.99
2019-03-10T07:40:36.878Z,99.99
2019-03-10T07:41:36.896Z,99.99
2019-03-10T07:42:36.914Z,99.99
2019-03-10T07:43:36.923Z,99.99
2019-03-10T07:44:36.942Z,99.99
2019-03-10T07:45:36.957Z,99.99
2019-03-10T07:46:36.974Z,99.99
2019-03-10T07:47:36.988Z,99.99
2019-03-10T07:48:37.003Z,99.99
2019-03-10T07:49:37.021Z,99.99
2019-03-10T07:50:37.038Z,99.99
2019-03-10T07:51:37.049Z,99.99
2019-03-10T07:52:37.066Z,99.99
2019-03-10T07:53:37.079Z,99.99
2019-03-10T07:54:37.095Z,99.99
2019-03-10T07:55:37.116Z,99.99
2019-03-10T07:56:37.129Z,99.99
2019-03-10T07:57:37.145Z,99.99
2019-03-10T07:58:37.159Z,99.99
2019-03-10T07:59:37.174Z,99.99
2019-03-10T08:00:37.192Z,99.99
2019-03-10T08:01:37.209Z,99.99
2019-03-10T08:02:37.219Z,99.99
2019-03-10T08:03:37.238Z,99.99
2019-03-10T08:04:37.254Z,99.99
2019-03-10T08:05:37.268Z,99.99
2019-03-10T08:06:37.283Z,99.99
2019-03-10T08:07:37.301Z,99.99
2019-03-10T08:08:37.317Z,99.99
2019-03-10T08:09:37.330Z,99.99
2019-03-10T08:10:37.348Z,99.99
2019-03-10T08:11:37.368Z,99.99
2019-03-10T08:12:37.379Z,99.99
2019-03-10T08:13:37.396Z,99.99
2019-03-10T08:14:37.411Z,99.99
2019-03-10T08:15:37.430Z,99.99
2019-03-10T08:16:37.442Z,99.99
2019-03-10T08:17:37.456Z,99.99
2019-03-10T08:18:37.473Z,99.99
2019-03-10T08:19:37.489Z,99.99
2019-03-10T08:20:37.505Z,99.99
2019-03-10T08:21:37.518Z,99.99
2019-03-10T08:22:37.534Z,99.99
2019-03-10T08:23:37.550Z,99.99
2019-03-10T08:24:37.567Z,99.99
2019-03-10T08:25:37.580Z,99.99
2019-03-10T08:26:37.599Z,99.99
2019-03-10T08:27:37.617Z,99.99
2019-03-10T08:28:37.629Z,99.99
2019-03-10T08:29:37.645Z,99.99
2019-03-10T08:30:37.665Z,99.99
2019-03-10T08:31:37.678Z,99.99
2019-03-10T08:32:37.710Z,99.99
2019-03-10T08:33:37.710Z,99.99
2019-03-10T08:34:37.725Z,99.99
2019-03-10T08:35:37.740Z,99.99
2019-03-10T08:36:37.756Z,99.99
2019-03-10T08:37:37.782Z,99.99
2019-03-10T08:38:37.787Z,99.99
2019-03-10T08:39:37.803Z,99.99
2019-03-10T08:40:37.825Z,99.99
2019-03-10T08:41:37.842Z,99.99
2019-03-10T08:42:37.849Z,99.99
2019-03-10T08:43:37.872Z,99.99
2019-03-10T08:44:37.882Z,99.99
2019-03-10T08:45:37.896Z,99.99
2019-03-10T08:46:37.917Z,99.99
2019-03-10T08:47:37.929Z,99.99
2019-03-10T08:48:37.943Z,99.99
2019-03-10T08:49:45.089Z,99.99
2019-03-10T08:50:37.988Z,99.99
2019-03-10T08:51:37.992Z,99.99
2019-03-10T08:52:38.011Z,99.99
2019-03-10T08:53:38.024Z,99.99
2019-03-10T08:54:38.338Z,99.99
2019-03-10T08:55:38.054Z,99.99
2019-03-10T08:56:38.228Z,99.99
2019-03-10T08:57:38.086Z,99.99
2019-03-10T08:58:38.263Z,99.99
2019-03-10T08:59:38.140Z,99.99
2019-03-10T09:00:38.135Z,99.99
2019-03-10T09:01:38.165Z,99.99
2019-03-10T09:02:38.170Z,99.99
2019-03-10T09:03:38.179Z,99.99
2019-03-10T09:04:38.208Z,99.99
2019-03-10T09:05:38.219Z,99.99
2019-03-10T09:06:38.231Z,99.99
2019-03-10T09:07:38.247Z,99.99
2019-03-10T09:08:38.261Z,99.99
2019-03-10T09:09:38.274Z,99.99
2019-03-10T09:10:38.297Z,99.99
2019-03-10T09:11:38.305Z,99.99
2019-03-10T09:12:38.330Z,99.99
2019-03-10T09:13:38.343Z,99.99
2019-03-10T09:14:38.355Z,99.99
2019-03-10T09:15:38.369Z,99.99
2019-03-10T09:16:38.384Z,99.99
2019-03-10T09:17:38.400Z,99.99
2019-03-10T09:18:38.423Z,99.99
2019-03-10T09:19:38.434Z,99.99
2019-03-10T09:20:38.454Z,99.99
2019-03-10T09:21:38.465Z,99.99
2019-03-10T09:22:38.482Z,99.99
2019-03-10T09:23:38.496Z,99.99
2019-03-10T09:24:38.514Z,99.99
2019-03-10T09:25:38.881Z,99.99
2019-03-10T09:26:38.545Z,99.99
2019-03-10T09:27:38.559Z,99.99
2019-03-10T09:28:38.579Z,99.99
2019-03-10T09:29:38.600Z,99.99
2019-03-10T09:30:38.615Z,99.99
2019-03-10T09:31:38.625Z,99.99
2019-03-10T09:32:38.638Z,99.99
2019-03-10T09:33:38.655Z,99.99
2019-03-10T09:34:38.670Z,99.99
2019-03-10T09:35:38.687Z,99.99
2019-03-10T09:36:38.704Z,99.99
2019-03-10T09:37:38.724Z,99.99
2019-03-10T09:38:38.736Z,99.99
2019-03-10T09:39:38.753Z,99.99
2019-03-10T09:40:38.766Z,99.99
2019-03-10T09:41:38.782Z,99.99
2019-03-10T09:42:38.798Z,99.99
2019-03-10T09:43:38.818Z,99.99
2019-03-10T09:44:38.832Z,99.99
2019-03-10T09:45:38.845Z,99.99
2019-03-10T09:46:38.864Z,99.99
2019-03-10T09:47:38.880Z,99.99
2019-03-10T09:48:38.896Z,99.99
2019-03-10T09:49:38.919Z,99.99
2019-03-10T09:50:38.925Z,99.99
2019-03-10T09:51:38.941Z,99.99
2019-03-10T09:52:38.959Z,99.99
2019-03-10T09:53:38.976Z,99.99
2019-03-10T09:54:38.997Z,99.99
2019-03-10T09:55:39.006Z,99.99
2019-03-10T09:56:39.022Z,99.99
2019-03-10T09:57:39.044Z,99.99
2019-03-10T09:58:39.054Z,99.99
2019-03-10T09:59:39.071Z,99.99
2019-03-10T10:00:39.085Z,99.99
2019-03-10T10:01:39.102Z,99.99
2019-03-10T10:02:39.132Z,99.99
2019-03-10T10:03:39.135Z,99.99
2019-03-10T10:04:39.199Z,99.99
2019-03-10T10:05:39.186Z,99.99
2019-03-10T10:06:39.204Z,99.99
2019-03-10T10:07:39.200Z,99.99
2019-03-10T10:08:39.219Z,99.99
2019-03-10T10:09:39.232Z,99.99
2019-03-10T10:10:39.246Z,99.99
2019-03-10T10:11:39.260Z,99.99
2019-03-10T10:12:39.277Z,99.99
2019-03-10T10:13:39.293Z,99.99
2019-03-10T10:14:39.310Z,99.99
2019-03-10T10:15:39.327Z,99.99
2019-03-10T10:16:39.341Z,99.99
2019-03-10T10:17:39.366Z,99.99
2019-03-10T10:18:39.377Z,99.99
2019-03-10T10:19:39.388Z,99.99
2019-03-10T10:20:39.404Z,99.99
2019-03-10T10:21:39.426Z,99.99
2019-03-10T10:22:39.437Z,99.99
2019-03-10T10:23:39.452Z,99.99
2019-03-10T10:24:39.469Z,99.99
2019-03-10T10:25:39.484Z,99.99
2019-03-10T10:26:39.503Z,99.99
2019-03-10T10:27:39.518Z,99.99
2019-03-10T10:28:39.533Z,99.99
2019-03-10T10:29:39.550Z,99.99
2019-03-10T10:30:39.566Z,99.99
2019-03-10T10:31:39.579Z,99.99
2019-03-10T10:32:39.596Z,99.99
2019-03-10T10:33:39.610Z,99.99
2019-03-10T10:34:39.627Z,99.99
2019-03-10T10:35:39.648Z,99.99
2019-03-10T10:36:39.661Z,99.99
2019-03-10T10:37:39.682Z,99.99
2019-03-10T10:38:39.695Z,99.99
2019-03-10T10:39:39.708Z,99.99
2019-03-10T10:40:39.721Z,99.99
2019-03-10T10:41:39.740Z,99.99
2019-03-10T10:42:39.763Z,99.99
2019-03-10T10:43:39.770Z,99.99
2019-03-10T10:44:39.788Z,99.99
2019-03-10T10:45:39.805Z,99.99
2019-03-10T10:46:39.824Z,99.99
2019-03-10T10:47:39.836Z,99.99
2019-03-10T10:48:39.851Z,99.99
2019-03-10T10:49:39.866Z,99.99
2019-03-10T10:50:39.892Z,99.99
2019-03-10T10:51:39.913Z,99.99
2019-03-10T10:52:40.066Z,99.99
2019-03-10T10:53:39.941Z,99.99
2019-03-10T10:54:39.984Z,99.99
2019-03-10T10:55:39.970Z,99.99
2019-03-10T10:56:39.994Z,99.99
2019-03-10T10:57:39.997Z,99.99
2019-03-10T10:58:40.010Z,99.99
2019-03-10T10:59:40.026Z,99.99
2019-03-10T11:00:40.047Z,99.99
2019-03-10T11:01:40.058Z,99.99
2019-03-10T11:02:40.081Z,99.99
2019-03-10T11:03:40.092Z,99.99
2019-03-10T11:04:40.106Z,99.99
2019-03-10T11:05:40.124Z,99.99
2019-03-10T11:06:40.140Z,99.99
2019-03-10T11:07:40.159Z,99.99
2019-03-10T11:08:40.172Z,99.99
2019-03-10T11:09:40.188Z,99.99
2019-03-10T11:10:40.203Z,99.99
2019-03-10T11:11:41.948Z,99.99
2019-03-10T11:12:40.240Z,99.99
2019-03-10T11:13:40.250Z,99.99
2019-03-10T11:14:40.266Z,99.99
2019-03-10T11:15:40.288Z,99.99
2019-03-10T11:16:40.301Z,99.99
2019-03-10T11:17:40.317Z,99.99
2019-03-10T11:18:40.330Z,99.99
2019-03-10T11:19:40.346Z,99.99
2019-03-10T11:20:40.363Z,99.99
2019-03-10T11:21:40.382Z,99.99
2019-03-10T11:22:40.401Z,99.99
2019-03-10T11:23:40.414Z,99.99
2019-03-10T11:24:40.430Z,99.99
2019-03-10T11:25:40.452Z,99.99
2019-03-10T11:26:40.463Z,99.99
2019-03-10T11:27:40.484Z,99.99
2019-03-10T11:28:40.495Z,99.99
2019-03-10T11:29:40.511Z,99.99
2019-03-10T11:30:40.525Z,99.99
2019-03-10T11:31:40.548Z,99.99
2019-03-10T11:32:40.560Z,99.99
2019-03-10T11:33:40.576Z,99.99
2019-03-10T11:34:40.598Z,99.99
2019-03-10T11:35:40.616Z,99.99
2019-03-10T11:36:40.624Z,99.99
2019-03-10T11:37:40.647Z,99.99
2019-03-10T11:38:40.659Z,99.99
2019-03-10T11:39:40.672Z,99.99
2019-03-10T11:40:40.685Z,99.99
2019-03-10T11:41:42.265Z,99.99
2019-03-10T11:42:40.721Z,99.99
2019-03-10T11:43:40.738Z,99.99
2019-03-10T11:44:40.752Z,99.99
2019-03-10T11:45:40.768Z,99.99
2019-03-10T11:46:40.793Z,99.99
2019-03-10T11:47:40.800Z,99.99
2019-03-10T11:48:40.819Z,99.99
2019-03-10T11:49:40.855Z,99.99
2019-03-10T11:50:40.855Z,99.99
2019-03-10T11:51:40.864Z,99.99
2019-03-10T11:52:40.885Z,99.99
2019-03-10T11:53:40.898Z,99.99
2019-03-10T11:54:40.918Z,99.99
2019-03-10T11:55:40.929Z,99.99
2019-03-10T11:56:42.145Z,99.99
2019-03-10T11:57:40.965Z,99.99
2019-03-10T11:58:40.983Z,99.99
2019-03-10T11:59:40.997Z,99.99
2019-03-10T12:00:41.012Z,99.99
2019-03-10T12:01:41.032Z,99.99
2019-03-10T12:02:41.041Z,99.99
2019-03-10T12:03:41.060Z,99.99
2019-03-10T12:04:41.076Z,99.99
2019-03-10T12:05:41.093Z,99.99
2019-03-10T12:06:41.115Z,99.99
2019-03-10T12:07:41.123Z,99.99
2019-03-10T12:08:41.138Z,99.99
2019-03-10T12:09:41.157Z,99.99
2019-03-10T12:10:41.171Z,99.99
2019-03-10T12:11:41.191Z,99.99
2019-03-10T12:12:41.210Z,99.99
2019-03-10T12:13:41.223Z,99.99
2019-03-10T12:14:41.236Z,99.99
2019-03-10T12:15:41.254Z,99.99
2019-03-10T12:16:41.275Z,99.99
2019-03-10T12:17:41.288Z,99.99
2019-03-10T12:18:41.306Z,99.99
2019-03-10T12:19:41.328Z,99.99
2019-03-10T12:20:41.335Z,99.99
2019-03-10T12:21:41.353Z,99.99
2019-03-10T12:22:41.370Z,99.99
2019-03-10T12:23:41.392Z,99.99
2019-03-10T12:24:41.408Z,99.99
2019-03-10T12:25:41.416Z,99.99
2019-03-10T12:26:41.434Z,99.99
2019-03-10T12:27:41.557Z,99.99
2019-03-10T12:28:41.733Z,99.99
2019-03-10T12:29:41.483Z,99.99
2019-03-10T12:30:41.507Z,99.99
2019-03-10T12:31:41.515Z,99.99
2019-03-10T12:32:41.531Z,99.99
2019-03-10T12:33:41.902Z,99.99
2019-03-10T12:34:41.568Z,99.99
2019-03-10T12:35:41.584Z,99.99
2019-03-10T12:36:42.011Z,99.99
2019-03-10T12:37:41.615Z,99.99
2019-03-10T12:38:41.630Z,99.99
2019-03-10T12:39:41.651Z,99.99
2019-03-10T12:40:41.667Z,99.99
2019-03-10T12:41:41.690Z,99.99
2019-03-10T12:42:41.696Z,99.99
2019-03-10T12:43:41.716Z,99.99
2019-03-10T12:44:41.731Z,99.99
2019-03-10T12:45:41.750Z,99.99
2019-03-10T12:46:41.770Z,99.99
2019-03-10T12:47:41.789Z,99.99
2019-03-10T12:48:41.796Z,99.99
2019-03-10T12:49:41.815Z,99.99
2019-03-10T12:50:41.837Z,99.99
2019-03-10T12:51:41.854Z,99.99
2019-03-10T12:52:41.865Z,99.99